Portada
METAR-TAF:

METAR-TAF

Aeroports :

Phnom Penh, Cambodja

latitud: 11-33N, longitud: 104-51E, altitud: 10 m

Observació

L'informe es va fer fa 15 minuts, a les 11:30 UTC
Temperatura
Pressió
Visibilitat: 9000 m
Núvols disperses a una alçada de 1500 ft

METAR: VDPP 221130Z /////KT 9000 SCT015 XX/XX Q////

Hora: 18:45 (11:45 UTC)

Pronòstic

L'informe es va fer fa 45 minuts, a les 11:00 UTC
Pronòstic vàlid del 22 a les 12 UTC al 23 a les 06 UTC
Vent 8 kt del Nord/Nord-Oest
Visibilitat 10 km o més
Núvols disperses a una alçada de 1700 ft
Temporalment
l' 22 a les 12 UTC al 22 a les 17 UTC
Visibilitat: 5000 m
Núvols disperses a una alçada de 1500 ft
Escasses núvols a una alçada de 1700 ft, Cumulonimbus.
Núvols disperses a una alçada de 4000 ft
tempesta, pluja

TAF: VDPP 221100Z 2212/2306 34008KT 9999 SCT017 TEMPO 2212/2217 5000 TSRA SCT015 FEW017CB SCT040

Observacions i pronòstics meteorològics de més de 4000 aeroports (METAR i TAF).

Les estacions disponibles són els punts grocs i vermells al mapa.

Posi el ratolí al punt desitjat per veure el nom de l'estació.

Feu clic per veure les observacions i els pronòstics meteorològics.

Per canviar el mapa: feu clic els botons verds amb una creu de color negre per apropar; al botó verd amb un guió per allunyar la imatge; o en les fletxes verdes per a mapes adjacents.


METAR-TAF: